createdAt,value
2018-07-05T00:00:14.197Z,0.00
2018-07-05T00:01:14.183Z,0.00
2018-07-05T00:02:14.162Z,0.00
2018-07-05T00:03:14.151Z,0.00
2018-07-05T00:04:14.145Z,0.00
2018-07-05T00:05:14.146Z,0.00
2018-07-05T00:06:14.109Z,0.00
2018-07-05T00:07:14.100Z,0.00
2018-07-05T00:08:14.083Z,0.00
2018-07-05T00:09:14.069Z,0.00
2018-07-05T00:10:14.042Z,0.00
2018-07-05T00:11:14.033Z,0.00
2018-07-05T00:12:14.020Z,0.00
2018-07-05T00:13:14.008Z,0.00
2018-07-05T00:14:13.985Z,0.00
2018-07-05T00:15:13.980Z,0.00
2018-07-05T00:16:13.959Z,0.00
2018-07-05T00:17:13.947Z,0.00
2018-07-05T00:18:13.927Z,0.00
2018-07-05T00:19:13.917Z,0.00
2018-07-05T00:20:13.895Z,0.00
2018-07-05T00:21:13.888Z,0.00
2018-07-05T00:22:13.872Z,0.00
2018-07-05T00:23:13.863Z,0.00
2018-07-05T00:24:13.834Z,0.00
2018-07-05T00:25:13.828Z,0.00
2018-07-05T00:26:13.812Z,0.00
2018-07-05T00:27:13.795Z,0.00
2018-07-05T00:28:13.778Z,0.00
2018-07-05T00:29:13.771Z,0.00
2018-07-05T00:30:13.751Z,0.00
2018-07-05T00:31:13.738Z,0.00
2018-07-05T00:32:13.721Z,0.00
2018-07-05T00:33:13.723Z,0.00
2018-07-05T00:34:13.688Z,0.00
2018-07-05T00:35:13.676Z,0.00
2018-07-05T00:36:13.659Z,0.00
2018-07-05T00:37:13.640Z,0.00
2018-07-05T00:38:13.633Z,0.00
2018-07-05T00:39:13.621Z,0.00
2018-07-05T00:40:13.596Z,0.00
2018-07-05T00:41:13.580Z,0.00
2018-07-05T00:42:13.564Z,0.00
2018-07-05T00:43:13.561Z,0.00
2018-07-05T00:44:13.534Z,0.00
2018-07-05T00:45:13.520Z,0.00
2018-07-05T00:46:13.507Z,0.00
2018-07-05T00:47:13.500Z,0.00
2018-07-05T00:48:13.478Z,0.00
2018-07-05T00:49:13.469Z,0.00
2018-07-05T00:50:13.446Z,0.00
2018-07-05T00:51:13.436Z,0.00
2018-07-05T00:52:13.417Z,0.00
2018-07-05T00:53:13.398Z,0.00
2018-07-05T00:54:13.385Z,0.00
2018-07-05T00:55:13.371Z,0.00
2018-07-05T00:56:13.353Z,0.00
2018-07-05T00:57:13.343Z,0.00
2018-07-05T00:58:13.323Z,0.00
2018-07-05T00:59:13.305Z,0.00
2018-07-05T01:00:13.289Z,0.00
2018-07-05T01:01:13.292Z,0.00
2018-07-05T01:02:13.264Z,0.00
2018-07-05T01:03:13.251Z,0.00
2018-07-05T01:04:13.228Z,0.00
2018-07-05T01:05:13.213Z,0.00
2018-07-05T01:06:13.199Z,0.00
2018-07-05T01:07:13.193Z,0.00
2018-07-05T01:08:13.171Z,0.00
2018-07-05T01:09:13.164Z,0.00
2018-07-05T01:10:13.142Z,0.00
2018-07-05T01:11:13.126Z,0.00
2018-07-05T01:12:13.107Z,0.00
2018-07-05T01:13:13.095Z,0.00
2018-07-05T01:14:13.075Z,0.00
2018-07-05T01:15:13.066Z,0.00
2018-07-05T01:16:13.040Z,0.00
2018-07-05T01:17:13.030Z,0.00
2018-07-05T01:18:13.015Z,0.00
2018-07-05T01:19:13.002Z,0.00
2018-07-05T01:20:12.982Z,0.00
2018-07-05T01:21:12.966Z,0.00
2018-07-05T01:22:12.954Z,0.00
2018-07-05T01:23:12.941Z,0.00
2018-07-05T01:24:12.926Z,0.00
2018-07-05T01:25:12.904Z,0.00
2018-07-05T01:26:12.891Z,0.00
2018-07-05T01:27:12.881Z,0.00
2018-07-05T01:28:12.865Z,0.00
2018-07-05T01:29:12.849Z,0.00
2018-07-05T01:30:12.833Z,0.00
2018-07-05T01:31:12.814Z,0.00
2018-07-05T01:32:12.797Z,0.00
2018-07-05T01:33:12.798Z,0.00
2018-07-05T01:34:12.769Z,0.00
2018-07-05T01:35:12.753Z,0.00
2018-07-05T01:36:12.757Z,0.00
2018-07-05T01:37:12.722Z,0.00
2018-07-05T01:38:12.731Z,0.00
2018-07-05T01:39:12.694Z,0.00
2018-07-05T01:40:12.680Z,0.00
2018-07-05T01:41:12.661Z,0.00
2018-07-05T01:42:12.649Z,0.00
2018-07-05T01:43:12.626Z,0.00
2018-07-05T01:44:12.613Z,0.00
2018-07-05T01:45:12.604Z,0.00
2018-07-05T01:46:12.586Z,0.00
2018-07-05T01:47:12.568Z,0.00
2018-07-05T01:48:12.559Z,0.00
2018-07-05T01:49:12.543Z,0.00
2018-07-05T01:50:12.523Z,0.00
2018-07-05T01:51:12.501Z,0.00
2018-07-05T01:52:12.506Z,0.00
2018-07-05T01:53:12.477Z,0.00
2018-07-05T01:54:12.459Z,0.00
2018-07-05T01:55:12.449Z,0.00
2018-07-05T01:56:12.430Z,0.00
2018-07-05T01:57:12.412Z,0.00
2018-07-05T01:58:12.392Z,0.00
2018-07-05T01:59:12.385Z,0.00
2018-07-05T02:00:12.376Z,0.00
2018-07-05T02:01:12.350Z,0.00
2018-07-05T02:02:12.340Z,0.00
2018-07-05T02:03:12.319Z,0.00
2018-07-05T02:04:12.304Z,0.00
2018-07-05T02:05:12.307Z,0.00
2018-07-05T02:06:12.268Z,0.00
2018-07-05T02:07:12.252Z,0.00
2018-07-05T02:08:12.240Z,0.00
2018-07-05T02:09:12.224Z,0.00
2018-07-05T02:10:12.208Z,0.00
2018-07-05T02:11:12.207Z,0.00
2018-07-05T02:12:12.179Z,0.00
2018-07-05T02:13:12.163Z,0.00
2018-07-05T02:14:12.143Z,0.00
2018-07-05T02:15:12.131Z,0.00
2018-07-05T02:16:12.117Z,0.00
2018-07-05T02:17:12.095Z,0.00
2018-07-05T02:18:12.092Z,0.00
2018-07-05T02:19:12.072Z,0.00
2018-07-05T02:20:12.053Z,0.00
2018-07-05T02:21:12.037Z,0.00
2018-07-05T02:22:12.025Z,0.00
2018-07-05T02:23:12.003Z,0.00
2018-07-05T02:24:11.999Z,0.00
2018-07-05T02:25:11.980Z,0.00
2018-07-05T02:26:11.970Z,0.00
2018-07-05T02:27:11.941Z,0.00
2018-07-05T02:28:11.928Z,0.00
2018-07-05T02:29:11.923Z,0.00
2018-07-05T02:30:11.896Z,0.00
2018-07-05T02:31:11.880Z,0.00
2018-07-05T02:32:11.871Z,0.00
2018-07-05T02:33:11.846Z,0.00
2018-07-05T02:34:11.829Z,0.00
2018-07-05T02:35:11.820Z,0.00
2018-07-05T02:36:11.809Z,0.00
2018-07-05T02:37:11.797Z,0.00
2018-07-05T02:38:11.771Z,0.00
2018-07-05T02:39:11.759Z,0.00
2018-07-05T02:40:11.742Z,0.00
2018-07-05T02:41:11.720Z,0.00
2018-07-05T02:42:11.711Z,4.00
2018-07-05T02:43:11.691Z,4.00
2018-07-05T02:44:11.677Z,4.00
2018-07-05T02:45:11.660Z,0.00
2018-07-05T02:46:11.649Z,4.00
2018-07-05T02:47:11.630Z,4.00
2018-07-05T02:48:11.612Z,4.00
2018-07-05T02:49:11.601Z,4.00
2018-07-05T02:50:11.609Z,4.00
2018-07-05T02:51:11.567Z,8.00
2018-07-05T02:52:11.553Z,8.00
2018-07-05T02:53:11.557Z,8.00
2018-07-05T02:54:11.525Z,8.00
2018-07-05T02:55:11.502Z,8.00
2018-07-05T02:56:11.486Z,12.00
2018-07-05T02:57:11.473Z,12.00
2018-07-05T02:58:11.460Z,16.00
2018-07-05T02:59:11.439Z,16.00
2018-07-05T03:00:11.426Z,20.00
2018-07-05T03:01:11.410Z,20.00
2018-07-05T03:02:11.397Z,24.00
2018-07-05T03:03:11.375Z,28.00
2018-07-05T03:04:11.365Z,32.00
2018-07-05T03:05:11.348Z,36.00
2018-07-05T03:06:11.328Z,40.00
2018-07-05T03:07:11.316Z,48.00
2018-07-05T03:08:11.298Z,52.00
2018-07-05T03:09:11.281Z,60.00
2018-07-05T03:10:11.270Z,64.00
2018-07-05T03:11:11.248Z,72.00
2018-07-05T03:12:11.235Z,80.00
2018-07-05T03:13:11.224Z,88.00
2018-07-05T03:14:11.210Z,100.00
2018-07-05T03:15:11.184Z,108.00
2018-07-05T03:16:11.175Z,116.00
2018-07-05T03:17:11.156Z,128.00
2018-07-05T03:18:11.142Z,140.00
2018-07-05T03:19:11.136Z,152.00
2018-07-05T03:20:11.112Z,168.00
2018-07-05T03:21:11.096Z,176.00
2018-07-05T03:22:11.077Z,192.00
2018-07-05T03:23:11.060Z,208.00
2018-07-05T03:24:11.047Z,224.00
2018-07-05T03:25:11.028Z,244.00
2018-07-05T03:26:11.019Z,260.00
2018-07-05T03:27:10.996Z,280.00
2018-07-05T03:28:10.977Z,296.00
2018-07-05T03:29:10.961Z,320.00
2018-07-05T03:30:10.948Z,340.00
2018-07-05T03:31:10.941Z,360.00
2018-07-05T03:32:10.923Z,384.00
2018-07-05T03:33:10.900Z,412.00
2018-07-05T03:34:10.890Z,432.00
2018-07-05T03:35:10.868Z,460.00
2018-07-05T03:36:10.852Z,484.00
2018-07-05T03:37:10.840Z,508.00
2018-07-05T03:38:10.830Z,540.00
2018-07-05T03:39:10.801Z,564.00
2018-07-05T03:40:10.789Z,592.00
2018-07-05T03:41:10.789Z,616.00
2018-07-05T03:42:10.760Z,640.00
2018-07-05T03:43:10.741Z,668.00
2018-07-05T03:44:10.733Z,700.00
2018-07-05T03:45:10.709Z,728.00
2018-07-05T03:46:10.696Z,756.00
2018-07-05T03:47:10.687Z,784.00
2018-07-05T03:48:10.683Z,812.00
2018-07-05T03:49:10.645Z,832.00
2018-07-05T03:50:10.632Z,856.00
2018-07-05T03:51:10.636Z,884.00
2018-07-05T03:52:10.597Z,904.00
2018-07-05T03:53:10.591Z,924.00
2018-07-05T03:54:10.575Z,948.00
2018-07-05T03:55:10.546Z,972.00
2018-07-05T03:56:10.539Z,1000.00
2018-07-05T03:57:10.524Z,1032.00
2018-07-05T03:58:10.509Z,1072.00
2018-07-05T03:59:10.493Z,1108.00
2018-07-05T04:00:10.477Z,1144.00
2018-07-05T04:01:10.493Z,1184.00
2018-07-05T04:02:10.470Z,1224.00
2018-07-05T04:03:10.473Z,1268.00
2018-07-05T04:04:10.448Z,1312.00
2018-07-05T04:05:10.413Z,1356.00
2018-07-05T04:06:10.394Z,1396.00
2018-07-05T04:07:10.397Z,1440.00
2018-07-05T04:08:10.434Z,1476.00
2018-07-05T04:09:10.364Z,1512.00
2018-07-05T04:10:10.340Z,1548.00
2018-07-05T04:11:10.327Z,1584.00
2018-07-05T04:12:10.288Z,1620.00
2018-07-05T04:13:10.301Z,1652.00
2018-07-05T04:14:10.270Z,1680.00
2018-07-05T04:15:10.247Z,1708.00
2018-07-05T04:16:10.285Z,1728.00
2018-07-05T04:17:10.234Z,1756.00
2018-07-05T04:18:10.243Z,1780.00
2018-07-05T04:19:10.180Z,1808.00
2018-07-05T04:20:10.205Z,1840.00
2018-07-05T04:21:10.151Z,1872.00
2018-07-05T04:22:10.179Z,1908.00
2018-07-05T04:23:10.139Z,1940.00
2018-07-05T04:24:10.197Z,1976.00
2018-07-05T04:25:10.128Z,2016.00
2018-07-05T04:26:10.164Z,2040.00
2018-07-05T04:27:10.132Z,2068.00
2018-07-05T04:28:10.085Z,2092.00
2018-07-05T04:29:10.052Z,2120.00
2018-07-05T04:30:10.022Z,2136.00
2018-07-05T04:31:10.042Z,2160.00
2018-07-05T04:32:10.019Z,2172.00
2018-07-05T04:33:10.007Z,2192.00
2018-07-05T04:34:09.976Z,2220.00
2018-07-05T04:35:10.019Z,2244.00
2018-07-05T04:36:09.987Z,2284.00
2018-07-05T04:37:09.930Z,2308.00
2018-07-05T04:38:09.938Z,2336.00
2018-07-05T04:39:09.911Z,2368.00
2018-07-05T04:40:09.879Z,2396.00
2018-07-05T04:41:09.854Z,2420.00
2018-07-05T04:42:09.845Z,2448.00
2018-07-05T04:43:09.857Z,2472.00
2018-07-05T04:44:09.834Z,2500.00
2018-07-05T04:45:09.799Z,2520.00
2018-07-05T04:46:09.806Z,2532.00
2018-07-05T04:47:09.776Z,2556.00
2018-07-05T04:48:09.774Z,2592.00
2018-07-05T04:49:09.764Z,2636.00
2018-07-05T04:50:09.738Z,2672.00
2018-07-05T04:51:09.738Z,2724.00
2018-07-05T04:52:09.690Z,2788.00
2018-07-05T04:53:09.677Z,2836.00
2018-07-05T04:54:09.645Z,2888.00
2018-07-05T04:55:09.646Z,2936.00
2018-07-05T04:56:09.651Z,2984.00
2018-07-05T04:57:09.648Z,3044.00
2018-07-05T04:58:09.643Z,3100.00
2018-07-05T04:59:09.617Z,3196.00
2018-07-05T05:00:09.616Z,3284.00
2018-07-05T05:01:09.610Z,3388.00
2018-07-05T05:02:09.561Z,3508.00
2018-07-05T05:03:09.568Z,3628.00
2018-07-05T05:04:09.533Z,3744.00
2018-07-05T05:05:09.507Z,3856.00
2018-07-05T05:06:09.537Z,3960.00
2018-07-05T05:07:09.481Z,4072.00
2018-07-05T05:08:09.457Z,4200.00
2018-07-05T05:09:09.491Z,4292.00
2018-07-05T05:10:09.481Z,4384.00
2018-07-05T05:11:09.434Z,4488.00
2018-07-05T05:12:09.475Z,4560.00
2018-07-05T05:13:09.485Z,4636.00
2018-07-05T05:14:09.398Z,4704.00
2018-07-05T05:15:09.433Z,4776.00
2018-07-05T05:16:09.395Z,4828.00
2018-07-05T05:17:09.416Z,4880.00
2018-07-05T05:18:09.324Z,4928.00
2018-07-05T05:19:09.337Z,4964.00
2018-07-05T05:20:09.340Z,4976.00
2018-07-05T05:21:09.308Z,5004.00
2018-07-05T05:22:09.277Z,5072.00
2018-07-05T05:23:09.360Z,5132.00
2018-07-05T05:24:09.260Z,5188.00
2018-07-05T05:25:09.273Z,5236.00
2018-07-05T05:26:09.240Z,5300.00
2018-07-05T05:27:09.222Z,5364.00
2018-07-05T05:28:09.271Z,5508.00
2018-07-05T05:29:09.164Z,5824.00
2018-07-05T05:30:09.256Z,5964.00
2018-07-05T05:31:09.138Z,5600.00
2018-07-05T05:32:09.128Z,5624.00
2018-07-05T05:33:09.100Z,5676.00
2018-07-05T05:34:09.096Z,5732.00
2018-07-05T05:35:09.077Z,5788.00
2018-07-05T05:36:09.068Z,5844.00
2018-07-05T05:37:09.075Z,5880.00
2018-07-05T05:38:09.043Z,5852.00
2018-07-05T05:39:09.026Z,5864.00
2018-07-05T05:40:09.016Z,5940.00
2018-07-05T05:41:09.010Z,6060.00
2018-07-05T05:42:08.994Z,6116.00
2018-07-05T05:43:08.978Z,6292.00
2018-07-05T05:44:08.964Z,6372.00
2018-07-05T05:45:08.952Z,6448.00
2018-07-05T05:46:08.939Z,6488.00
2018-07-05T05:47:08.928Z,6488.00
2018-07-05T05:48:08.998Z,6468.00
2018-07-05T05:49:08.906Z,6460.00
2018-07-05T05:50:08.899Z,6436.00
2018-07-05T05:51:08.880Z,6416.00
2018-07-05T05:52:08.874Z,6400.00
2018-07-05T05:53:08.858Z,6384.00
2018-07-05T05:54:08.845Z,6412.00
2018-07-05T05:55:08.838Z,6472.00
2018-07-05T05:56:08.819Z,6544.00
2018-07-05T05:57:08.813Z,6624.00
2018-07-05T05:58:08.797Z,6676.00
2018-07-05T05:59:08.791Z,6716.00
2018-07-05T06:00:08.777Z,6712.00
2018-07-05T06:01:08.770Z,6728.00
2018-07-05T06:02:08.765Z,6756.00
2018-07-05T06:03:08.746Z,6780.00
2018-07-05T06:04:08.727Z,6844.00
2018-07-05T06:05:08.728Z,6916.00
2018-07-05T06:06:08.705Z,6964.00
2018-07-05T06:07:08.696Z,7052.00
2018-07-05T06:08:08.694Z,7124.00
2018-07-05T06:09:08.674Z,7208.00
2018-07-05T06:10:08.665Z,7292.00
2018-07-05T06:11:08.660Z,7356.00
2018-07-05T06:12:08.648Z,7432.00
2018-07-05T06:13:08.634Z,7572.00
2018-07-05T06:14:08.619Z,7692.00
2018-07-05T06:15:08.612Z,7828.00
2018-07-05T06:16:08.613Z,7984.00
2018-07-05T06:17:08.590Z,8120.00
2018-07-05T06:18:08.584Z,8260.00
2018-07-05T06:19:08.577Z,8392.00
2018-07-05T06:20:08.555Z,8488.00
2018-07-05T06:21:08.554Z,8444.00
2018-07-05T06:22:08.542Z,8384.00
2018-07-05T06:23:08.526Z,8372.00
2018-07-05T06:24:08.517Z,8316.00
2018-07-05T06:25:08.510Z,8408.00
2018-07-05T06:26:08.504Z,8476.00
2018-07-05T06:27:08.488Z,8564.00
2018-07-05T06:28:08.475Z,8668.00
2018-07-05T06:29:08.466Z,8808.00
2018-07-05T06:30:08.456Z,8844.00
2018-07-05T06:31:08.447Z,8792.00
2018-07-05T06:32:08.437Z,8744.00
2018-07-05T06:33:08.431Z,8828.00
2018-07-05T06:34:08.422Z,9024.00
2018-07-05T06:35:08.408Z,9236.00
2018-07-05T06:36:08.405Z,9368.00
2018-07-05T06:37:08.389Z,9476.00
2018-07-05T06:38:08.386Z,9540.00
2018-07-05T06:39:08.373Z,9664.00
2018-07-05T06:40:08.367Z,9860.00
2018-07-05T06:41:08.357Z,10112.00
2018-07-05T06:42:08.344Z,10284.00
2018-07-05T06:43:08.335Z,10320.00
2018-07-05T06:44:08.329Z,10224.00
2018-07-05T06:45:08.322Z,10136.00
2018-07-05T06:46:08.316Z,10072.00
2018-07-05T06:47:08.307Z,10148.00
2018-07-05T06:48:08.290Z,10720.00
2018-07-05T06:49:08.284Z,11560.00
2018-07-05T06:50:08.281Z,12300.00
2018-07-05T06:51:08.273Z,12904.00
2018-07-05T06:52:08.260Z,13292.00
2018-07-05T06:53:08.396Z,13612.00
2018-07-05T06:54:08.239Z,13888.00
2018-07-05T06:55:08.232Z,14404.00
2018-07-05T06:56:08.220Z,14992.00
2018-07-05T06:57:08.217Z,15608.00
2018-07-05T06:58:08.207Z,15900.00
2018-07-05T06:59:08.233Z,15936.00
2018-07-05T07:00:08.192Z,15756.00
2018-07-05T07:01:08.180Z,15440.00
2018-07-05T07:02:08.175Z,14804.00
2018-07-05T07:03:08.168Z,14100.00
2018-07-05T07:04:08.159Z,13832.00
2018-07-05T07:05:08.146Z,14264.00
2018-07-05T07:06:08.146Z,14768.00
2018-07-05T07:07:08.140Z,14936.00
2018-07-05T07:08:08.264Z,14744.00
2018-07-05T07:09:08.119Z,14868.00
2018-07-05T07:10:08.115Z,15352.00
2018-07-05T07:11:08.103Z,15660.00
2018-07-05T07:12:08.096Z,15768.00
2018-07-05T07:13:08.090Z,15532.00
2018-07-05T07:14:08.083Z,15496.00
2018-07-05T07:15:08.083Z,15772.00
2018-07-05T07:16:08.137Z,16148.00
2018-07-05T07:17:08.062Z,16492.00
2018-07-05T07:18:08.052Z,16904.00
2018-07-05T07:19:08.048Z,17168.00
2018-07-05T07:20:08.038Z,17760.00
2018-07-05T07:21:08.039Z,18208.00
2018-07-05T07:22:08.035Z,18496.00
2018-07-05T07:23:08.020Z,19008.00
2018-07-05T07:24:08.014Z,19520.00
2018-07-05T07:25:08.011Z,19136.00
2018-07-05T07:26:07.997Z,17664.00
2018-07-05T07:27:07.997Z,18720.00
2018-07-05T07:28:07.987Z,18912.00
2018-07-05T07:29:07.984Z,19168.00
2018-07-05T07:30:07.978Z,19488.00
2018-07-05T07:31:07.971Z,19936.00
2018-07-05T07:32:07.962Z,20704.00
2018-07-05T07:33:08.008Z,21184.00
2018-07-05T07:34:07.949Z,20288.00
2018-07-05T07:35:07.943Z,20544.00
2018-07-05T07:36:07.942Z,19424.00
2018-07-05T07:37:07.937Z,18912.00
2018-07-05T07:38:07.931Z,17888.00
2018-07-05T07:39:07.928Z,17344.00
2018-07-05T07:40:07.915Z,17344.00
2018-07-05T07:41:07.912Z,17120.00
2018-07-05T07:42:07.912Z,17088.00
2018-07-05T07:43:07.904Z,16680.00
2018-07-05T07:44:07.900Z,16448.00
2018-07-05T07:45:07.899Z,15952.00
2018-07-05T07:46:07.886Z,15416.00
2018-07-05T07:47:07.884Z,15176.00
2018-07-05T07:48:07.880Z,15440.00
2018-07-05T07:49:07.873Z,16024.00
2018-07-05T07:50:07.864Z,16640.00
2018-07-05T07:51:07.867Z,17376.00
2018-07-05T07:52:07.854Z,17792.00
2018-07-05T07:53:07.856Z,17824.00
2018-07-05T07:54:07.845Z,17696.00
2018-07-05T07:55:07.841Z,17696.00
2018-07-05T07:56:07.841Z,17856.00
2018-07-05T07:57:07.826Z,18016.00
2018-07-05T07:58:07.860Z,18240.00
2018-07-05T07:59:07.819Z,18400.00
2018-07-05T08:00:07.816Z,18464.00
2018-07-05T08:01:07.807Z,18336.00
2018-07-05T08:02:07.796Z,17952.00
2018-07-05T08:03:07.797Z,17472.00
2018-07-05T08:04:07.788Z,16880.00
2018-07-05T08:05:07.786Z,16528.00
2018-07-05T08:06:07.775Z,16296.00
2018-07-05T08:07:07.767Z,16320.00
2018-07-05T08:08:07.791Z,16516.00
2018-07-05T08:09:07.758Z,16708.00
2018-07-05T08:10:07.752Z,16932.00
2018-07-05T08:11:07.745Z,17148.00
2018-07-05T08:12:07.733Z,17408.00
2018-07-05T08:13:07.725Z,17440.00
2018-07-05T08:14:07.724Z,17376.00
2018-07-05T08:15:07.766Z,17068.00
2018-07-05T08:16:07.715Z,16728.00
2018-07-05T08:17:07.703Z,16516.00
2018-07-05T08:18:07.701Z,16532.00
2018-07-05T08:19:07.695Z,16636.00
2018-07-05T08:20:07.692Z,16928.00
2018-07-05T08:21:07.678Z,17204.00
2018-07-05T08:22:07.685Z,17304.00
2018-07-05T08:23:07.694Z,17344.00
2018-07-05T08:24:07.663Z,17008.00
2018-07-05T08:25:07.655Z,16812.00
2018-07-05T08:26:07.657Z,16732.00
2018-07-05T08:27:07.649Z,16644.00
2018-07-05T08:28:07.636Z,16832.00
2018-07-05T08:29:07.635Z,16952.00
2018-07-05T08:30:07.640Z,17404.00
2018-07-05T08:31:07.641Z,18080.00
2018-07-05T08:32:07.612Z,19040.00
2018-07-05T08:33:07.610Z,20000.00
2018-07-05T08:34:07.603Z,20768.00
2018-07-05T08:35:07.591Z,20992.00
2018-07-05T08:36:07.584Z,20288.00
2018-07-05T08:37:07.585Z,19424.00
2018-07-05T08:38:07.578Z,18656.00
2018-07-05T08:39:07.573Z,18304.00
2018-07-05T08:40:07.590Z,18144.00
2018-07-05T08:41:07.562Z,18112.00
2018-07-05T08:42:07.555Z,18240.00
2018-07-05T08:43:07.554Z,18464.00
2018-07-05T08:44:07.546Z,18720.00
2018-07-05T08:45:07.534Z,19136.00
2018-07-05T08:46:07.530Z,19680.00
2018-07-05T08:47:07.526Z,20192.00
2018-07-05T08:48:07.516Z,20768.00
2018-07-05T08:49:07.513Z,20928.00
2018-07-05T08:50:07.507Z,21632.00
2018-07-05T08:51:07.523Z,22336.00
2018-07-05T08:52:07.494Z,22912.00
2018-07-05T08:53:07.490Z,23232.00
2018-07-05T08:54:07.484Z,22656.00
2018-07-05T08:55:07.484Z,23168.00
2018-07-05T08:56:07.479Z,23200.00
2018-07-05T08:57:07.475Z,24128.00
2018-07-05T08:58:07.468Z,24192.00
2018-07-05T08:59:07.460Z,24160.00
2018-07-05T09:00:07.456Z,24736.00
2018-07-05T09:01:07.452Z,25472.00
2018-07-05T09:02:07.456Z,25952.00
2018-07-05T09:03:07.436Z,25632.00
2018-07-05T09:04:07.436Z,25760.00
2018-07-05T09:05:07.466Z,26304.00
2018-07-05T09:06:07.428Z,26496.00
2018-07-05T09:07:07.423Z,26592.00
2018-07-05T09:08:07.414Z,26944.00
2018-07-05T09:09:07.410Z,26976.00
2018-07-05T09:10:07.437Z,26144.00
2018-07-05T09:11:07.417Z,25792.00
2018-07-05T09:12:07.393Z,26144.00
2018-07-05T09:13:07.387Z,27712.00
2018-07-05T09:14:07.382Z,29792.00
2018-07-05T09:15:07.375Z,31136.00
2018-07-05T09:16:07.375Z,32064.00
2018-07-05T09:17:07.375Z,33472.00
2018-07-05T09:18:07.399Z,32704.00
2018-07-05T09:19:07.359Z,32928.00
2018-07-05T09:20:07.353Z,31776.00
2018-07-05T09:21:07.350Z,34176.00
2018-07-05T09:22:07.344Z,36608.00
2018-07-05T09:23:07.411Z,39232.00
2018-07-05T09:24:07.334Z,36544.00
2018-07-05T09:25:07.330Z,36544.00
2018-07-05T09:26:07.330Z,36960.00
2018-07-05T09:27:07.330Z,35936.00
2018-07-05T09:28:07.316Z,31008.00
2018-07-05T09:29:07.360Z,29600.00
2018-07-05T09:30:07.310Z,31200.00
2018-07-05T09:31:07.382Z,25376.00
2018-07-05T09:32:07.297Z,23680.00
2018-07-05T09:33:07.314Z,23648.00
2018-07-05T09:34:07.297Z,24224.00
2018-07-05T09:35:07.291Z,24064.00
2018-07-05T09:36:07.282Z,24224.00
2018-07-05T09:37:07.308Z,24736.00
2018-07-05T09:38:07.278Z,25152.00
2018-07-05T09:39:07.269Z,24288.00
2018-07-05T09:40:07.262Z,24960.00
2018-07-05T09:41:07.259Z,26400.00
2018-07-05T09:42:07.262Z,26848.00
2018-07-05T09:43:07.269Z,28224.00
2018-07-05T09:44:07.249Z,26848.00
2018-07-05T09:45:07.243Z,27136.00
2018-07-05T09:46:07.250Z,29344.00
2018-07-05T09:47:07.296Z,29440.00
2018-07-05T09:48:07.260Z,28640.00
2018-07-05T09:49:07.227Z,28736.00
2018-07-05T09:50:07.224Z,33408.00
2018-07-05T09:51:07.225Z,37728.00
2018-07-05T09:52:07.217Z,39776.00
2018-07-05T09:53:07.211Z,42112.00
2018-07-05T09:54:07.211Z,46720.00
2018-07-05T09:55:07.202Z,45696.00
2018-07-05T09:56:07.201Z,50432.00
2018-07-05T09:57:07.199Z,54336.00
2018-07-05T09:58:07.216Z,58304.00
2018-07-05T09:59:07.189Z,49664.00
2018-07-05T10:00:07.183Z,51936.00
2018-07-05T10:01:07.182Z,54272.00
2018-07-05T10:02:07.179Z,52000.00
2018-07-05T10:03:07.170Z,49856.00
2018-07-05T10:04:07.167Z,48544.00
2018-07-05T10:05:07.182Z,55936.00
2018-07-05T10:06:07.160Z,61792.00
2018-07-05T10:07:07.157Z,66240.00
2018-07-05T10:08:07.154Z,62784.00
2018-07-05T10:09:07.150Z,66368.00
2018-07-05T10:10:07.147Z,70208.00
2018-07-05T10:11:07.147Z,68672.00
2018-07-05T10:12:07.140Z,63104.00
2018-07-05T10:13:07.246Z,61824.00
2018-07-05T10:14:07.135Z,62464.00
2018-07-05T10:15:07.135Z,60448.00
2018-07-05T10:16:07.128Z,60992.00
2018-07-05T10:17:07.124Z,60160.00
2018-07-05T10:18:07.131Z,56736.00
2018-07-05T10:19:07.119Z,62272.00
2018-07-05T10:20:07.118Z,66048.00
2018-07-05T10:21:07.118Z,64960.00
2018-07-05T10:22:07.118Z,62400.00
2018-07-05T10:23:07.120Z,61856.00
2018-07-05T10:24:07.105Z,56704.00
2018-07-05T10:25:07.103Z,49152.00
2018-07-05T10:26:07.141Z,41312.00
2018-07-05T10:27:07.099Z,40320.00
2018-07-05T10:28:07.158Z,48736.00
2018-07-05T10:29:07.098Z,49376.00
2018-07-05T10:30:07.090Z,45856.00
2018-07-05T10:31:07.092Z,47360.00
2018-07-05T10:32:07.085Z,48000.00
2018-07-05T10:33:07.076Z,43328.00
2018-07-05T10:34:07.078Z,35200.00
2018-07-05T10:35:07.086Z,30240.00
2018-07-05T10:36:07.070Z,28736.00
2018-07-05T10:37:07.076Z,27072.00
2018-07-05T10:38:07.079Z,25856.00
2018-07-05T10:39:07.066Z,27072.00
2018-07-05T10:40:07.057Z,28064.00
2018-07-05T10:41:07.062Z,29824.00
2018-07-05T10:42:07.065Z,31200.00
2018-07-05T10:43:07.053Z,32992.00
2018-07-05T10:44:07.044Z,34464.00
2018-07-05T10:45:07.041Z,36256.00
2018-07-05T10:46:07.087Z,38432.00
2018-07-05T10:47:07.038Z,41216.00
2018-07-05T10:48:07.028Z,42944.00
2018-07-05T10:49:07.035Z,41920.00
2018-07-05T10:50:07.025Z,39808.00
2018-07-05T10:51:07.022Z,44416.00
2018-07-05T10:52:07.012Z,42880.00
2018-07-05T10:53:07.022Z,42208.00
2018-07-05T10:54:07.009Z,39392.00
2018-07-05T10:55:06.999Z,43200.00
2018-07-05T10:56:07.006Z,44480.00
2018-07-05T10:57:06.999Z,47008.00
2018-07-05T10:58:06.996Z,47936.00
2018-07-05T10:59:07.003Z,49408.00
2018-07-05T11:00:06.987Z,50336.00
2018-07-05T11:01:07.000Z,50752.00
2018-07-05T11:02:06.980Z,53440.00
2018-07-05T11:03:06.977Z,54112.00
2018-07-05T11:04:06.971Z,54048.00
2018-07-05T11:05:06.964Z,52832.00
2018-07-05T11:06:06.959Z,53312.00
2018-07-05T11:07:06.966Z,53472.00
2018-07-05T11:08:06.952Z,52960.00
2018-07-05T11:09:06.958Z,53120.00
2018-07-05T11:10:06.955Z,50944.00
2018-07-05T11:11:06.948Z,49408.00
2018-07-05T11:12:06.952Z,56384.00
2018-07-05T11:13:06.945Z,47744.00
2018-07-05T11:14:06.942Z,62880.00
2018-07-05T11:15:06.936Z,64448.00
2018-07-05T11:16:06.929Z,44384.00
2018-07-05T11:17:06.932Z,44512.00
2018-07-05T11:18:06.926Z,41536.00
2018-07-05T11:19:06.929Z,43520.00
2018-07-05T11:20:06.919Z,41536.00
2018-07-05T11:21:06.923Z,37504.00
2018-07-05T11:22:06.913Z,36096.00
2018-07-05T11:23:06.920Z,35264.00
2018-07-05T11:24:06.923Z,35200.00
2018-07-05T11:25:06.916Z,36352.00
2018-07-05T11:26:06.911Z,38400.00
2018-07-05T11:27:06.904Z,37728.00
2018-07-05T11:28:06.914Z,38016.00
2018-07-05T11:29:06.900Z,38464.00
2018-07-05T11:30:06.925Z,42592.00
2018-07-05T11:31:06.894Z,48128.00
2018-07-05T11:32:06.890Z,88320.00
2018-07-05T11:33:06.887Z,72256.00
2018-07-05T11:34:06.897Z,90016.00
2018-07-05T11:35:06.891Z,78080.00
2018-07-05T11:36:06.881Z,55008.00
2018-07-05T11:37:06.884Z,61440.00
2018-07-05T11:38:06.888Z,59296.00
2018-07-05T11:39:06.875Z,90656.00
2018-07-05T11:40:06.872Z,38176.00
2018-07-05T11:41:06.871Z,39296.00
2018-07-05T11:42:06.868Z,38912.00
2018-07-05T11:43:06.869Z,41760.00
2018-07-05T11:44:06.868Z,46816.00
2018-07-05T11:45:06.872Z,52128.00
2018-07-05T11:46:06.868Z,59584.00
2018-07-05T11:47:06.885Z,76800.00
2018-07-05T11:48:06.865Z,60512.00
2018-07-05T11:49:06.856Z,50848.00
2018-07-05T11:50:06.856Z,42080.00
2018-07-05T11:51:06.853Z,43584.00
2018-07-05T11:52:06.863Z,32128.00
2018-07-05T11:53:06.852Z,27872.00
2018-07-05T11:54:06.849Z,25376.00
2018-07-05T11:55:06.852Z,23616.00
2018-07-05T11:56:06.843Z,22720.00
2018-07-05T11:57:06.849Z,21920.00
2018-07-05T11:58:06.846Z,21312.00
2018-07-05T11:59:06.843Z,20768.00
2018-07-05T12:00:06.840Z,20032.00
2018-07-05T12:01:06.837Z,19424.00
2018-07-05T12:02:06.931Z,18720.00
2018-07-05T12:03:06.831Z,17856.00
2018-07-05T12:04:06.834Z,17248.00
2018-07-05T12:05:06.817Z,16608.00
2018-07-05T12:06:06.814Z,16048.00
2018-07-05T12:07:06.823Z,15744.00
2018-07-05T12:08:06.810Z,15484.00
2018-07-05T12:09:06.800Z,15192.00
2018-07-05T12:10:06.797Z,14808.00
2018-07-05T12:11:06.791Z,14664.00
2018-07-05T12:12:06.788Z,14620.00
2018-07-05T12:13:06.781Z,14588.00
2018-07-05T12:14:06.778Z,14652.00